^^
Datos históricos de la estación: Murcia-Puente Tocinos
Diario Informe para Marzo 14, 2019 Unidades:  Ambas    Inglés   Métrico
Diario Semanal Mensual Anual Configurable
  Máximo: Mínimo: Media:
Temperatura: 70.3 °F /  21.3 °C 49.3 °F /  9.6 °C 58.3 °F /  14.6 °C
Punto de rocio: 46 °F /  7.8 °C 25.5 °F /  -3.6 °C 37.4 °F /  3 °C
Humedad: 77% 19% 50%
Velocidad viento: 10.2mph /  16.4km/h - 4.7mph /  7.5km/h
Racha viento: 17.3mph /  27.8km/h - -
Viento- - SSW
Presión: 30.4 in /  1027.7 hPa 30.2 in /  1023.4 hPa -
Precipitación: 0 in /  0.0 mm    
Historical Graphs
 
 
Tabla de datos para Marzo 14, 2019
Hora Temperatura Punto de rocio Presión Viento Velocidad viento Racha viento Humedad Intensidad lluvia(por hora) Nubes
00:00 53.8 °F /  12.1 °C 45.3 °F /  7.4 °C 30.3in /  1026.4hPa ENE 2mph /  3.2km/h 5mph /  8.0km/h 73% 0in /  0.0mm CLR
00:05 53.8 °F /  12.1 °C 45.3 °F /  7.4 °C 30.3in /  1026.4hPa East 2.9mph /  4.7km/h 3.5mph /  5.6km/h 73% 0in /  0.0mm CLR
00:10 53.8 °F /  12.1 °C 45.3 °F /  7.4 °C 30.3in /  1026.4hPa East 2.4mph /  3.9km/h 2.3mph /  3.7km/h 73% 0in /  0.0mm CLR
00:15 53.8 °F /  12.1 °C 45.3 °F /  7.4 °C 30.3in /  1026.4hPa East 2.4mph /  3.9km/h   73% 0in /  0.0mm CLR
00:20 53.8 °F /  12.1 °C 45.3 °F /  7.4 °C 30.3in /  1026.5hPa Calm   3.5mph /  5.6km/h 73% 0in /  0.0mm CLR
00:25 53.6 °F /  12.0 °C 45.1 °F /  7.3 °C 30.3in /  1026.5hPa Calm   3.5mph /  5.6km/h 73% 0in /  0.0mm CLR
00:30 53.4 °F /  11.9 °C 45 °F /  7.2 °C 30.3in /  1026.5hPa East 2mph /  3.2km/h 4.6mph /  7.4km/h 73% 0in /  0.0mm CLR
00:35 53.4 °F /  11.9 °C 45 °F /  7.2 °C 30.3in /  1026.6hPa East 2mph /  3.2km/h   73% 0in /  0.0mm CLR
00:40 53.2 °F /  11.8 °C 44.8 °F /  7.1 °C 30.3in /  1026.6hPa East 1.8mph /  2.9km/h 3.5mph /  5.6km/h 73% 0in /  0.0mm CLR
00:45 53.2 °F /  11.8 °C 45.1 °F /  7.3 °C 30.3in /  1026.6hPa NW 1.8mph /  2.9km/h 3.5mph /  5.6km/h 74% 0in /  0.0mm CLR
00:50 53.1 °F /  11.7 °C 45 °F /  7.2 °C 30.3in /  1026.7hPa NW 2mph /  3.2km/h 2.3mph /  3.7km/h 74% 0in /  0.0mm CLR
00:55 52.9 °F /  11.6 °C 44.8 °F /  7.1 °C 30.3in /  1026.7hPa NW 2mph /  3.2km/h 2.3mph /  3.7km/h 74% 0in /  0.0mm CLR
01:00 52.9 °F /  11.6 °C 44.8 °F /  7.1 °C 30.3in /  1026.7hPa NW 2mph /  3.2km/h 3mph /  4.8km/h 74% 0in /  0.0mm CLR
01:05 52.5 °F /  11.4 °C 44.8 °F /  7.1 °C 30.3in /  1026.9hPa NW 1.8mph /  2.9km/h 2.3mph /  3.7km/h 75% 0in /  0.0mm CLR
01:10 52.5 °F /  11.4 °C 45.1 °F /  7.3 °C 30.3in /  1026.9hPa NW 1.4mph /  2.3km/h 3.5mph /  5.6km/h 76% 0in /  0.0mm CLR
01:15 52.5 °F /  11.4 °C 44.8 °F /  7.1 °C 30.3in /  1026.9hPa ESE 1.4mph /  2.3km/h 4.6mph /  7.4km/h 75% 0in /  0.0mm CLR
01:20 52.3 °F /  11.3 °C 44.6 °F /  7.0 °C 30.3in /  1026.8hPa ESE 2.4mph /  3.9km/h 2.4mph /  3.9km/h 75% 0in /  0.0mm CLR
01:25 52.3 °F /  11.3 °C 44.6 °F /  7.0 °C 30.3in /  1026.8hPa ESE 2.4mph /  3.9km/h 4mph /  6.4km/h 75% 0in /  0.0mm CLR
01:30 52.3 °F /  11.3 °C 45 °F /  7.2 °C 30.3in /  1026.8hPa SSE 2.9mph /  4.7km/h 4.6mph /  7.4km/h 76% 0in /  0.0mm CLR
01:35 52.3 °F /  11.3 °C 45.3 °F /  7.4 °C 30.3in /  1026.8hPa South 2.9mph /  4.7km/h 6.9mph /  11.1km/h 77% 0in /  0.0mm CLR
01:40 52.5 °F /  11.4 °C 45.5 °F /  7.5 °C 30.3in /  1026.8hPa South 4.3mph /  6.9km/h 6.9mph /  11.1km/h 77% 0in /  0.0mm CLR
01:45 52.5 °F /  11.4 °C 45.5 °F /  7.5 °C 30.3in /  1026.8hPa SSW 4.3mph /  6.9km/h 6.2mph /  10.0km/h 77% 0in /  0.0mm CLR
01:50 52.5 °F /  11.4 °C 45.5 °F /  7.5 °C 30.3in /  1026.8hPa SSW 4.7mph /  7.6km/h 5.8mph /  9.3km/h 77% 0in /  0.0mm CLR
01:55 52.7 °F /  11.5 °C 45.3 °F /  7.4 °C 30.3in /  1026.8hPa SW 4.7mph /  7.6km/h 5.8mph /  9.3km/h 76% 0in /  0.0mm CLR
02:00 52.9 °F /  11.6 °C 45.1 °F /  7.3 °C 30.3in /  1026.8hPa SW 5mph /  8.0km/h 6mph /  9.7km/h 75% 0in /  0.0mm CLR
02:05 52.7 °F /  11.5 °C 45 °F /  7.2 °C 30.3in /  1026.9hPa SW 4mph /  6.4km/h 5.9mph /  9.5km/h 75% 0in /  0.0mm CLR
02:10 52.7 °F /  11.5 °C 45 °F /  7.2 °C 30.3in /  1026.9hPa SW 3.6mph /  5.8km/h 4.6mph /  7.4km/h 75% 0in /  0.0mm CLR
02:15 52.9 °F /  11.6 °C 45.1 °F /  7.3 °C 30.3in /  1026.9hPa SSW 3.6mph /  5.8km/h 5.8mph /  9.3km/h 75% 0in /  0.0mm CLR
02:20 52.9 °F /  11.6 °C 45.1 °F /  7.3 °C 30.3in /  1026.9hPa SW 4mph /  6.4km/h 6.9mph /  11.1km/h 75% 0in /  0.0mm CLR
02:25 52.9 °F /  11.6 °C 45.1 °F /  7.3 °C 30.3in /  1026.9hPa SW 4mph /  6.4km/h 5.9mph /  9.5km/h 75% 0in /  0.0mm CLR
02:30 52.9 °F /  11.6 °C 45.1 °F /  7.3 °C 30.3in /  1026.9hPa SW 4mph /  6.4km/h 4.6mph /  7.4km/h 75% 0in /  0.0mm CLR
02:35 52.9 °F /  11.6 °C 45.1 °F /  7.3 °C 30.3in /  1026.8hPa WSW 4mph /  6.4km/h 4.6mph /  7.4km/h 75% 0in /  0.0mm CLR
02:40 52.5 °F /  11.4 °C 44.8 °F /  7.1 °C 30.3in /  1026.8hPa SW 3.6mph /  5.8km/h 5.9mph /  9.5km/h 75% 0in /  0.0mm CLR
02:45 52.5 °F /  11.4 °C 44.8 °F /  7.1 °C 30.3in /  1026.8hPa SSW 3.6mph /  5.8km/h 6.9mph /  11.1km/h 75% 0in /  0.0mm CLR
02:50 52.5 °F /  11.4 °C 44.8 °F /  7.1 °C 30.3in /  1026.9hPa SW 4.3mph /  6.9km/h 5.8mph /  9.3km/h 75% 0in /  0.0mm CLR
02:55 52.5 °F /  11.4 °C 44.8 °F /  7.1 °C 30.3in /  1026.9hPa SW 4.3mph /  6.9km/h 5.9mph /  9.5km/h 75% 0in /  0.0mm CLR
03:00 52.5 °F /  11.4 °C 44.8 °F /  7.1 °C 30.3in /  1026.9hPa SW 3mph /  4.8km/h 9mph /  14.5km/h 75% 0in /  0.0mm CLR
03:05 52.3 °F /  11.3 °C 44.6 °F /  7.0 °C 30.3in /  1026.9hPa South 3.6mph /  5.8km/h 6.9mph /  11.1km/h 75% 0in /  0.0mm CLR
03:10 52.2 °F /  11.2 °C 44.8 °F /  7.1 °C 30.3in /  1026.9hPa SSW 5.4mph /  8.7km/h 8.1mph /  13.0km/h 76% 0in /  0.0mm CLR
03:15 51.8 °F /  11.0 °C 44.4 °F /  6.9 °C 30.3in /  1026.9hPa SSW 5.4mph /  8.7km/h 7.4mph /  11.9km/h 76% 0in /  0.0mm CLR
03:20 51.6 °F /  10.9 °C 44.6 °F /  7.0 °C 30.3in /  1026.7hPa SSW 5.9mph /  9.5km/h 5.8mph /  9.3km/h 77% 0in /  0.0mm CLR
03:25 51.6 °F /  10.9 °C 44.6 °F /  7.0 °C 30.3in /  1026.7hPa SSW 5.9mph /  9.5km/h 5.8mph /  9.3km/h 77% 0in /  0.0mm CLR
03:30 51.4 °F /  10.8 °C 44.4 °F /  6.9 °C 30.3in /  1026.7hPa SSW 4.7mph /  7.6km/h 9.2mph /  14.8km/h 77% 0in /  0.0mm CLR
03:35 51.4 °F /  10.8 °C 44.4 °F /  6.9 °C 30.3in /  1026.7hPa SSW 4.7mph /  7.6km/h 6.9mph /  11.1km/h 77% 0in /  0.0mm CLR
03:40 51.3 °F /  10.7 °C 44.2 °F /  6.8 °C 30.3in /  1026.7hPa South 5.4mph /  8.7km/h 8.1mph /  13.0km/h 77% 0in /  0.0mm CLR
03:45 51.3 °F /  10.7 °C 44.2 °F /  6.8 °C 30.3in /  1026.7hPa SSW 5.4mph /  8.7km/h 8.1mph /  13.0km/h 77% 0in /  0.0mm CLR
03:50 51.3 °F /  10.7 °C 44.2 °F /  6.8 °C 30.3in /  1026.4hPa SW 5.4mph /  8.7km/h 5.8mph /  9.3km/h 77% 0in /  0.0mm CLR
03:55 51.3 °F /  10.7 °C 44.2 °F /  6.8 °C 30.3in /  1026.4hPa SW 5.4mph /  8.7km/h 5.8mph /  9.3km/h 77% 0in /  0.0mm CLR
04:00 51.3 °F /  10.7 °C 44.1 °F /  6.7 °C 30.3in /  1026.4hPa SSW 5mph /  8.0km/h 7mph /  11.3km/h 76% 0in /  0.0mm CLR
04:05 51.4 °F /  10.8 °C 44.1 °F /  6.7 °C 30.3in /  1026.2hPa SW 4.7mph /  7.6km/h 6.9mph /  11.1km/h 76% 0in /  0.0mm CLR
04:10 51.4 °F /  10.8 °C 44.4 °F /  6.9 °C 30.3in /  1026.2hPa South 4.7mph /  7.6km/h 4.6mph /  7.4km/h 77% 0in /  0.0mm CLR
04:15 51.4 °F /  10.8 °C 44.4 °F /  6.9 °C 30.3in /  1026.2hPa SW 4.7mph /  7.6km/h 4.6mph /  7.4km/h 77% 0in /  0.0mm CLR
04:20 51.6 °F /  10.9 °C 44.6 °F /  7.0 °C 30.3in /  1026.3hPa WSW 4mph /  6.4km/h 4.6mph /  7.4km/h 77% 0in /  0.0mm CLR
04:25 51.6 °F /  10.9 °C 44.2 °F /  6.8 °C 30.3in /  1026.3hPa SW 4mph /  6.4km/h 5.8mph /  9.3km/h 76% 0in /  0.0mm CLR
04:30 51.4 °F /  10.8 °C 44.4 °F /  6.9 °C 30.3in /  1026.3hPa SSW 3.6mph /  5.8km/h 4.7mph /  7.6km/h 77% 0in /  0.0mm CLR
04:35 51.4 °F /  10.8 °C 44.4 °F /  6.9 °C 30.3in /  1026.1hPa SW 3.6mph /  5.8km/h 3.6mph /  5.8km/h 77% 0in /  0.0mm CLR
04:40 51.4 °F /  10.8 °C 44.1 °F /  6.7 °C 30.3in /  1026.1hPa SW 3.1mph /  5.0km/h 3.5mph /  5.6km/h 76% 0in /  0.0mm CLR
04:45 51.4 °F /  10.8 °C 44.1 °F /  6.7 °C 30.3in /  1026.1hPa SW 3.1mph /  5.0km/h 3.5mph /  5.6km/h 76% 0in /  0.0mm CLR
04:50 51.4 °F /  10.8 °C 43.9 °F /  6.6 °C 30.3in /  1026.0hPa WSW 2mph /  3.2km/h 3.5mph /  5.6km/h 75% 0in /  0.0mm CLR
04:55 51.4 °F /  10.8 °C 43.2 °F /  6.2 °C 30.3in /  1026.0hPa SSW 2mph /  3.2km/h 3.5mph /  5.6km/h 73% 0in /  0.0mm CLR
05:00 51.3 °F /  10.7 °C 43 °F /  6.1 °C 30.3in /  1026.0hPa SSW 2mph /  3.2km/h 5mph /  8.0km/h 73% 0in /  0.0mm CLR
05:05 51.3 °F /  10.7 °C 43 °F /  6.1 °C 30.3in /  1026.1hPa SSW 2.4mph /  3.9km/h 2.3mph /  3.7km/h 73% 0in /  0.0mm CLR
05:10 51.1 °F /  10.6 °C 43.2 °F /  6.2 °C 30.3in /  1026.1hPa SSW 2mph /  3.2km/h 2.3mph /  3.7km/h 74% 0in /  0.0mm CLR
05:15 50.5 °F /  10.3 °C 43 °F /  6.1 °C 30.3in /  1026.1hPa SSW 2mph /  3.2km/h 2.3mph /  3.7km/h 75% 0in /  0.0mm CLR
05:20 50.4 °F /  10.2 °C 42.6 °F /  5.9 °C 30.3in /  1026.2hPa SSW 2mph /  3.2km/h 3.5mph /  5.6km/h 75% 0in /  0.0mm CLR
05:25 50 °F /  10.0 °C 42.6 °F /  5.9 °C 30.3in /  1026.2hPa SW 2mph /  3.2km/h 5.4mph /  8.7km/h 76% 0in /  0.0mm CLR
05:30 49.8 °F /  9.9 °C 42.3 °F /  5.7 °C 30.3in /  1026.2hPa SW 2.9mph /  4.7km/h 6.9mph /  11.1km/h 75% 0in /  0.0mm CLR
05:35 49.8 °F /  9.9 °C 41.9 °F /  5.5 °C 30.3in /  1026.0hPa SW 2.9mph /  4.7km/h 6.2mph /  10.0km/h 74% 0in /  0.0mm CLR
05:40 50 °F /  10.0 °C 41.4 °F /  5.2 °C 30.3in /  1026.0hPa WSW 4.7mph /  7.6km/h 4.7mph /  7.6km/h 72% 0in /  0.0mm CLR
05:45 50.2 °F /  10.1 °C 41.5 °F /  5.3 °C 30.3in /  1026.0hPa West 4.7mph /  7.6km/h 6.9mph /  11.1km/h 72% 0in /  0.0mm CLR
05:50 50 °F /  10.0 °C 39.7 °F /  4.3 °C 30.3in /  1026.1hPa WNW 4mph /  6.4km/h 5.8mph /  9.3km/h 68% 0in /  0.0mm CLR
05:55 49.8 °F /  9.9 °C 38.8 °F /  3.8 °C 30.3in /  1026.1hPa SW 4mph /  6.4km/h 5.8mph /  9.3km/h 66% 0in /  0.0mm CLR
06:00 49.8 °F /  9.9 °C 38.8 °F /  3.8 °C 30.3in /  1026.1hPa WSW 3mph /  4.8km/h 5mph /  8.0km/h 66% 0in /  0.0mm CLR
06:05 49.6 °F /  9.8 °C 38.7 °F /  3.7 °C 30.3in /  1026.5hPa SW 3.1mph /  5.0km/h 2.3mph /  3.7km/h 66% 0in /  0.0mm CLR
06:10 49.6 °F /  9.8 °C 39 °F /  3.9 °C 30.3in /  1026.5hPa SW 1.8mph /  2.9km/h 2.3mph /  3.7km/h 67% 0in /  0.0mm CLR
06:15 49.6 °F /  9.8 °C 39 °F /  3.9 °C 30.3in /  1026.5hPa SW 1.8mph /  2.9km/h 3.5mph /  5.6km/h 67% 0in /  0.0mm CLR
06:20 49.5 °F /  9.7 °C 39 °F /  3.9 °C 30.3in /  1026.6hPa SW 1.8mph /  2.9km/h 3.5mph /  5.6km/h 67% 0in /  0.0mm CLR
06:25 49.5 °F /  9.7 °C 39 °F /  3.9 °C 30.3in /  1026.6hPa SW 1.8mph /  2.9km/h 3.6mph /  5.8km/h 67% 0in /  0.0mm CLR
06:30 49.5 °F /  9.7 °C 39 °F /  3.9 °C 30.3in /  1026.6hPa SW 2.4mph /  3.9km/h 4.6mph /  7.4km/h 67% 0in /  0.0mm CLR
06:35 49.6 °F /  9.8 °C 37.9 °F /  3.3 °C 30.3in /  1026.5hPa SW 2.4mph /  3.9km/h 5.8mph /  9.3km/h 64% 0in /  0.0mm CLR
06:40 49.8 °F /  9.9 °C 37.2 °F /  2.9 °C 30.3in /  1026.5hPa South 4mph /  6.4km/h 4.6mph /  7.4km/h 62% 0in /  0.0mm CLR
06:45 50.2 °F /  10.1 °C 36.3 °F /  2.4 °C 30.3in /  1026.5hPa SSE 4mph /  6.4km/h 4.6mph /  7.4km/h 59% 0in /  0.0mm CLR
06:50 50.4 °F /  10.2 °C 36.7 °F /  2.6 °C 30.3in /  1026.5hPa South 4mph /  6.4km/h 5.2mph /  8.4km/h 59% 0in /  0.0mm CLR
06:55 50.4 °F /  10.2 °C 36.1 °F /  2.3 °C 30.3in /  1026.5hPa South 4mph /  6.4km/h 4.6mph /  7.4km/h 58% 0in /  0.0mm CLR
07:00 50.4 °F /  10.2 °C 35.8 °F /  2.1 °C 30.3in /  1026.5hPa South 3mph /  4.8km/h 5mph /  8.0km/h 57% 0in /  0.0mm CLR
07:05 50.4 °F /  10.2 °C 35.2 °F /  1.8 °C 30.3in /  1026.7hPa South 3.1mph /  5.0km/h 3.5mph /  5.6km/h 56% 0in /  0.0mm CLR
07:10 50.5 °F /  10.3 °C 36 °F /  2.2 °C 30.3in /  1026.7hPa SE 2.9mph /  4.7km/h 4.6mph /  7.4km/h 57% 0in /  0.0mm CLR
07:15 50 °F /  10.0 °C 36.7 °F /  2.6 °C 30.3in /  1026.7hPa East 2.9mph /  4.7km/h 4.6mph /  7.4km/h 60% 0in /  0.0mm CLR
07:20 49.3 °F /  9.6 °C 36 °F /  2.2 °C 30.3in /  1026.7hPa SSE 2.9mph /  4.7km/h 5.8mph /  9.3km/h 60% 0in /  0.0mm CLR
07:25 49.5 °F /  9.7 °C 35.2 °F /  1.8 °C 30.3in /  1026.7hPa South 2.9mph /  4.7km/h 5.8mph /  9.3km/h 58% 0in /  0.0mm CLR
07:30 49.6 °F /  9.8 °C 34.5 °F /  1.4 °C 30.3in /  1026.7hPa South 4.3mph /  6.9km/h 5.8mph /  9.3km/h 56% 0in /  0.0mm CLR
07:35 50.2 °F /  10.1 °C 34.5 °F /  1.4 °C 30.3in /  1026.8hPa South 4.3mph /  6.9km/h 4.6mph /  7.4km/h 55% 0in /  0.0mm CLR
07:40 50.4 °F /  10.2 °C 34.3 °F /  1.3 °C 30.3in /  1026.8hPa SSW 4mph /  6.4km/h 3.5mph /  5.6km/h 54% 0in /  0.0mm CLR
07:45 50.7 °F /  10.4 °C 34.7 °F /  1.5 °C 30.3in /  1026.8hPa SSW 4mph /  6.4km/h 4.6mph /  7.4km/h 54% 0in /  0.0mm CLR
07:50 51.1 °F /  10.6 °C 34.2 °F /  1.2 °C 30.3in /  1026.8hPa SSW 2.4mph /  3.9km/h 5.8mph /  9.3km/h 52% 0in /  0.0mm CLR
07:55 51.3 °F /  10.7 °C 33.6 °F /  0.9 °C 30.3in /  1026.8hPa SW 2.4mph /  3.9km/h 5.8mph /  9.3km/h 51% 0in /  0.0mm CLR
08:00 51.4 °F /  10.8 °C 34 °F /  1.1 °C 30.3in /  1026.8hPa SW 3mph /  4.8km/h 6mph /  9.7km/h 51% 0in /  0.0mm CLR
08:05 51.6 °F /  10.9 °C 33.1 °F /  0.6 °C 30.3in /  1026.9hPa SW 3.6mph /  5.8km/h 4.6mph /  7.4km/h 49% 0in /  0.0mm CLR
08:10 52 °F /  11.1 °C 33.4 °F /  0.8 °C 30.3in /  1026.9hPa SSW 3.6mph /  5.8km/h 5.8mph /  9.3km/h 49% 0in /  0.0mm CLR
08:15 52.2 °F /  11.2 °C 34.2 °F /  1.2 °C 30.3in /  1026.9hPa SSW 3.6mph /  5.8km/h 1.2mph /  1.9km/h 50% 0in /  0.0mm CLR
08:20 52.5 °F /  11.4 °C 34 °F /  1.1 °C 30.3in /  1027.1hPa SSW 2.4mph /  3.9km/h 2.3mph /  3.7km/h 49% 0in /  0.0mm CLR
08:25 53.1 °F /  11.7 °C 33.3 °F /  0.7 °C 30.3in /  1027.1hPa SW 2.4mph /  3.9km/h 4.7mph /  7.6km/h 47% 0in /  0.0mm CLR
08:30 53.2 °F /  11.8 °C 33.1 °F /  0.6 °C 30.3in /  1027.1hPa WSW 2.4mph /  3.9km/h 5.8mph /  9.3km/h 46% 0in /  0.0mm CLR
08:35 53.4 °F /  11.9 °C 32.5 °F /  0.3 °C 30.3in /  1027.2hPa West 2.4mph /  3.9km/h 6.9mph /  11.1km/h 45% 0in /  0.0mm CLR
08:40 53.6 °F /  12.0 °C 32.2 °F /  0.1 °C 30.3in /  1027.2hPa WSW 4.3mph /  6.9km/h 8.1mph /  13.0km/h 44% 0in /  0.0mm CLR
08:45 53.8 °F /  12.1 °C 31.8 °F /  -0.1 °C 30.3in /  1027.2hPa WSW 4.3mph /  6.9km/h 6.9mph /  11.1km/h 43% 0in /  0.0mm CLR
08:50 54.1 °F /  12.3 °C 32.2 °F /  0.1 °C 30.3in /  1027.3hPa WSW 4.3mph /  6.9km/h 9.2mph /  14.8km/h 43% 0in /  0.0mm CLR
08:55 54.1 °F /  12.3 °C 31.5 °F /  -0.3 °C 30.3in /  1027.3hPa WSW 4.3mph /  6.9km/h 10.4mph /  16.7km/h 42% 0in /  0.0mm CLR
09:00 54.3 °F /  12.4 °C 31.8 °F /  -0.1 °C 30.3in /  1027.3hPa WSW 6mph /  9.7km/h 9mph /  14.5km/h 42% 0in /  0.0mm CLR
09:05 54.7 °F /  12.6 °C 32 °F /  0.0 °C 30.3in /  1027.4hPa West 5.4mph /  8.7km/h 9.2mph /  14.8km/h 42% 0in /  0.0mm CLR
09:10 54.9 °F /  12.7 °C 32.2 °F /  0.1 °C 30.3in /  1027.4hPa WSW 5.9mph /  9.5km/h 9.2mph /  14.8km/h 42% 0in /  0.0mm CLR
09:15 55.2 °F /  12.9 °C 31.3 °F /  -0.4 °C 30.3in /  1027.4hPa West 5.9mph /  9.5km/h 11.2mph /  18.0km/h 40% 0in /  0.0mm CLR
09:20 55.2 °F /  12.9 °C 30.7 °F /  -0.7 °C 30.3in /  1027.5hPa WNW 6.4mph /  10.3km/h 16.1mph /  25.9km/h 39% 0in /  0.0mm CLR
09:25 55.4 °F /  13.0 °C 31.5 °F /  -0.3 °C 30.3in /  1027.5hPa WSW 6.4mph /  10.3km/h 8.1mph /  13.0km/h 40% 0in /  0.0mm CLR
09:30 55.8 °F /  13.2 °C 31.3 °F /  -0.4 °C 30.3in /  1027.5hPa WSW 7.4mph /  11.9km/h 10.4mph /  16.7km/h 39% 0in /  0.0mm CLR
09:35 55.9 °F /  13.3 °C 30.7 °F /  -0.7 °C 30.3in /  1027.4hPa West 7.4mph /  11.9km/h 10.4mph /  16.7km/h 38% 0in /  0.0mm CLR
09:40 56.3 °F /  13.5 °C 30.9 °F /  -0.6 °C 30.3in /  1027.4hPa NW 7.4mph /  11.9km/h 9.2mph /  14.8km/h 38% 0in /  0.0mm CLR
09:45 56.7 °F /  13.7 °C 30.7 °F /  -0.7 °C 30.3in /  1027.4hPa NW 7.4mph /  11.9km/h 11.5mph /  18.5km/h 37% 0in /  0.0mm CLR
09:50 56.8 °F /  13.8 °C 30 °F /  -1.1 °C 30.3in /  1027.5hPa West 7.6mph /  12.2km/h 17.3mph /  27.8km/h 36% 0in /  0.0mm CLR
09:55 56.8 °F /  13.8 °C 30.7 °F /  -0.7 °C 30.3in /  1027.5hPa WNW 7.6mph /  12.2km/h 11.5mph /  18.5km/h 37% 0in /  0.0mm CLR
10:00 57.2 °F /  14.0 °C 30.4 °F /  -0.9 °C 30.3in /  1027.5hPa WNW 9mph /  14.5km/h 14mph /  22.5km/h 36% 0in /  0.0mm CLR
10:05 57.6 °F /  14.2 °C 30 °F /  -1.1 °C 30.4in /  1027.7hPa WNW 9.2mph /  14.8km/h 14.5mph /  23.3km/h 35% 0in /  0.0mm CLR
10:10 57.7 °F /  14.3 °C 30.2 °F /  -1.0 °C 30.4in /  1027.7hPa WNW 8.7mph /  14.0km/h 17.3mph /  27.8km/h 35% 0in /  0.0mm CLR
10:15 57.9 °F /  14.4 °C 30.4 °F /  -0.9 °C 30.4in /  1027.7hPa WNW 8.7mph /  14.0km/h 17mph /  27.4km/h 35% 0in /  0.0mm CLR
10:20 58.3 °F /  14.6 °C 30 °F /  -1.1 °C 30.4in /  1027.7hPa West 10mph /  16.1km/h 16.1mph /  25.9km/h 34% 0in /  0.0mm CLR
10:25 58.5 °F /  14.7 °C 30.2 °F /  -1.0 °C 30.4in /  1027.7hPa WNW 10mph /  16.1km/h 16.8mph /  27.0km/h 34% 0in /  0.0mm CLR
10:30 58.5 °F /  14.7 °C 30.2 °F /  -1.0 °C 30.4in /  1027.7hPa NNE 10.2mph /  16.4km/h 12.7mph /  20.4km/h 34% 0in /  0.0mm CLR
10:35 58.6 °F /  14.8 °C 29.7 °F /  -1.3 °C 30.3in /  1027.5hPa WNW 10.2mph /  16.4km/h 17.3mph /  27.8km/h 33% 0in /  0.0mm CLR
10:40 58.8 °F /  14.9 °C 29.7 °F /  -1.3 °C 30.3in /  1027.5hPa NW 10.2mph /  16.4km/h 15mph /  24.1km/h 33% 0in /  0.0mm CLR
10:45 58.8 °F /  14.9 °C 28.9 °F /  -1.7 °C 30.3in /  1027.5hPa NNW 10.2mph /  16.4km/h 13.8mph /  22.2km/h 32% 0in /  0.0mm CLR
10:50 58.8 °F /  14.9 °C 28.9 °F /  -1.7 °C 30.3in /  1027.5hPa NW 9.2mph /  14.8km/h 8.1mph /  13.0km/h 32% 0in /  0.0mm CLR
10:55 59.2 °F /  15.1 °C 29.3 °F /  -1.5 °C 30.3in /  1027.5hPa West 9.2mph /  14.8km/h 10.4mph /  16.7km/h 32% 0in /  0.0mm CLR
11:00 59.4 °F /  15.2 °C 30 °F /  -1.1 °C 30.3in /  1027.5hPa WNW 7mph /  11.3km/h 13mph /  20.9km/h 33% 0in /  0.0mm CLR
11:05 59.7 °F /  15.4 °C 28.9 °F /  -1.7 °C 30.3in /  1027.5hPa WNW 7.4mph /  11.9km/h 9.7mph /  15.6km/h 31% 0in /  0.0mm CLR
11:10 59.7 °F /  15.4 °C 28.2 °F /  -2.1 °C 30.3in /  1027.5hPa WNW 7.4mph /  11.9km/h 6.9mph /  11.1km/h 30% 0in /  0.0mm CLR
11:15 59.9 °F /  15.5 °C 29.1 °F /  -1.6 °C 30.3in /  1027.5hPa WNW 7.4mph /  11.9km/h 13mph /  20.9km/h 31% 0in /  0.0mm CLR
11:20 59.7 °F /  15.4 °C 28.9 °F /  -1.7 °C 30.3in /  1027.5hPa West 6.2mph /  10.0km/h 8.1mph /  13.0km/h 31% 0in /  0.0mm CLR
11:25 60.3 °F /  15.7 °C 29.5 °F /  -1.4 °C 30.3in /  1027.5hPa WNW 6.2mph /  10.0km/h 6.9mph /  11.1km/h 31% 0in /  0.0mm CLR
11:30 60.4 °F /  15.8 °C 28.8 °F /  -1.8 °C 30.3in /  1027.5hPa NW 5.4mph /  8.7km/h 8.7mph /  14.0km/h 30% 0in /  0.0mm CLR
11:35 60.4 °F /  15.8 °C 28.8 °F /  -1.8 °C 30.3in /  1027.4hPa NW 5.4mph /  8.7km/h 6.9mph /  11.1km/h 30% 0in /  0.0mm CLR
11:40 60.6 °F /  15.9 °C 28.9 °F /  -1.7 °C 30.3in /  1027.4hPa West 5.2mph /  8.4km/h 9.2mph /  14.8km/h 30% 0in /  0.0mm CLR
11:45 61.2 °F /  16.2 °C 28.6 °F /  -1.9 °C 30.3in /  1027.4hPa SW 5.2mph /  8.4km/h 9.2mph /  14.8km/h 29% 0in /  0.0mm CLR
11:50 61.3 °F /  16.3 °C 29.7 °F /  -1.3 °C 30.3in /  1027.4hPa WNW 5.2mph /  8.4km/h 11.5mph /  18.5km/h 30% 0in /  0.0mm CLR
11:55 61.5 °F /  16.4 °C 29.8 °F /  -1.2 °C 30.3in /  1027.4hPa NNE 5.2mph /  8.4km/h 6.9mph /  11.1km/h 30% 0in /  0.0mm CLR
12:00 62.1 °F /  16.7 °C 29.5 °F /  -1.4 °C 30.3in /  1027.4hPa North 6mph /  9.7km/h 8mph /  12.9km/h 29% 0in /  0.0mm CLR
12:05 62.2 °F /  16.8 °C 29.7 °F /  -1.3 °C 30.3in /  1027.2hPa WNW 5.4mph /  8.7km/h 5.8mph /  9.3km/h 29% 0in /  0.0mm CLR
12:10 62.4 °F /  16.9 °C 28.9 °F /  -1.7 °C 30.3in /  1027.2hPa WNW 3.6mph /  5.8km/h 2.3mph /  3.7km/h 28% 0in /  0.0mm CLR
12:15 62.8 °F /  17.1 °C 29.1 °F /  -1.6 °C 30.3in /  1027.2hPa SSW 3.6mph /  5.8km/h 4.6mph /  7.4km/h 28% 0in /  0.0mm CLR
12:20 63 °F /  17.2 °C 29.3 °F /  -1.5 °C 30.3in /  1027.2hPa WNW 3.6mph /  5.8km/h 5.8mph /  9.3km/h 28% 0in /  0.0mm CLR
12:25 63 °F /  17.2 °C 29.3 °F /  -1.5 °C 30.3in /  1027.2hPa WNW 3.6mph /  5.8km/h 9.2mph /  14.8km/h 28% 0in /  0.0mm CLR
12:30 63 °F /  17.2 °C 28.4 °F /  -2.0 °C 30.3in /  1027.2hPa NNW 4.3mph /  6.9km/h 6.9mph /  11.1km/h 27% 0in /  0.0mm CLR
12:35 63.1 °F /  17.3 °C 28.6 °F /  -1.9 °C 30.3in /  1027.0hPa WNW 4.3mph /  6.9km/h 4.6mph /  7.4km/h 27% 0in /  0.0mm CLR
12:40 63.3 °F /  17.4 °C 28.8 °F /  -1.8 °C 30.3in /  1027.0hPa NW 3.6mph /  5.8km/h 11.5mph /  18.5km/h 27% 0in /  0.0mm CLR
12:45 63.3 °F /  17.4 °C 28.8 °F /  -1.8 °C 30.3in /  1027.0hPa SW 3.6mph /  5.8km/h 6.4mph /  10.3km/h 27% 0in /  0.0mm CLR
12:50 63.7 °F /  17.6 °C 28.9 °F /  -1.7 °C 30.3in /  1026.9hPa WNW 5.2mph /  8.4km/h 11.5mph /  18.5km/h 27% 0in /  0.0mm CLR
12:55 63.7 °F /  17.6 °C 28 °F /  -2.2 °C 30.3in /  1026.9hPa NW 5.2mph /  8.4km/h 8.7mph /  14.0km/h 26% 0in /  0.0mm CLR
13:00 63.7 °F /  17.6 °C 28 °F /  -2.2 °C 30.3in /  1026.9hPa WNW 6mph /  9.7km/h 12mph /  19.3km/h 26% 0in /  0.0mm CLR
13:05 63.9 °F /  17.7 °C 28.2 °F /  -2.1 °C 30.3in /  1026.6hPa WNW 6.2mph /  10.0km/h 5.8mph /  9.3km/h 26% 0in /  0.0mm CLR
13:10 64 °F /  17.8 °C 28.4 °F /  -2.0 °C 30.3in /  1026.6hPa WNW 5.4mph /  8.7km/h 6.9mph /  11.1km/h 26% 0in /  0.0mm CLR
13:15 64.2 °F /  17.9 °C 28.6 °F /  -1.9 °C 30.3in /  1026.6hPa NW 5.4mph /  8.7km/h 9.2mph /  14.8km/h 26% 0in /  0.0mm CLR
13:20 64 °F /  17.8 °C 27.5 °F /  -2.5 °C 30.3in /  1026.4hPa WNW 6.2mph /  10.0km/h 9.2mph /  14.8km/h 25% 0in /  0.0mm CLR
13:25 64 °F /  17.8 °C 28.4 °F /  -2.0 °C 30.3in /  1026.4hPa WNW 6.2mph /  10.0km/h 5.2mph /  8.4km/h 26% 0in /  0.0mm CLR
13:30 64.8 °F /  18.2 °C 28 °F /  -2.2 °C 30.3in /  1026.4hPa East 3.1mph /  5.0km/h 4.6mph /  7.4km/h 25% 0in /  0.0mm CLR
13:35 64.9 °F /  18.3 °C 28.2 °F /  -2.1 °C 30.3in /  1026.0hPa NE 3.1mph /  5.0km/h 4.6mph /  7.4km/h 25% 0in /  0.0mm CLR
13:40 65.3 °F /  18.5 °C 28.6 °F /  -1.9 °C 30.3in /  1026.0hPa NW 3.1mph /  5.0km/h 4.6mph /  7.4km/h 25% 0in /  0.0mm CLR
13:45 65.3 °F /  18.5 °C 28.6 °F /  -1.9 °C 30.3in /  1026.0hPa SE 3.1mph /  5.0km/h 6.9mph /  11.1km/h 25% 0in /  0.0mm CLR
13:50 64.9 °F /  18.3 °C 28.2 °F /  -2.1 °C 30.3in /  1025.8hPa SSW 4.3mph /  6.9km/h 10.4mph /  16.7km/h 25% 0in /  0.0mm CLR
13:55 64.8 °F /  18.2 °C 28 °F /  -2.2 °C 30.3in /  1025.8hPa SSW 4.3mph /  6.9km/h 10.4mph /  16.7km/h 25% 0in /  0.0mm CLR
14:00 64.8 °F /  18.2 °C 28 °F /  -2.2 °C 30.3in /  1025.8hPa South 6mph /  9.7km/h 11mph /  17.7km/h 25% 0in /  0.0mm CLR
14:05 65.1 °F /  18.4 °C 27.3 °F /  -2.6 °C 30.3in /  1025.4hPa SSW 6.2mph /  10.0km/h 9.2mph /  14.8km/h 24% 0in /  0.0mm CLR
14:10 65.7 °F /  18.7 °C 27.9 °F /  -2.3 °C 30.3in /  1025.4hPa South 6.2mph /  10.0km/h 11.8mph /  19.0km/h 24% 0in /  0.0mm CLR
14:15 65.7 °F /  18.7 °C 27.9 °F /  -2.3 °C 30.3in /  1025.4hPa SE 6.2mph /  10.0km/h 6.9mph /  11.1km/h 24% 0in /  0.0mm CLR
14:20 65.7 °F /  18.7 °C 27.9 °F /  -2.3 °C 30.3in /  1025.1hPa South 5.2mph /  8.4km/h 3.5mph /  5.6km/h 24% 0in /  0.0mm CLR
14:25 66.2 °F /  19.0 °C 28.2 °F /  -2.1 °C 30.3in /  1025.1hPa West 5.2mph /  8.4km/h 6.4mph /  10.3km/h 24% 0in /  0.0mm CLR
14:30 66.7 °F /  19.3 °C 27.7 °F /  -2.4 °C 30.3in /  1025.1hPa WSW 2mph /  3.2km/h 6.4mph /  10.3km/h 23% 0in /  0.0mm CLR
14:35 66.9 °F /  19.4 °C 27.9 °F /  -2.3 °C 30.3in /  1024.9hPa SW 2mph /  3.2km/h 5.8mph /  9.3km/h 23% 0in /  0.0mm CLR
14:40 66.9 °F /  19.4 °C 26.8 °F /  -2.9 °C 30.3in /  1024.9hPa SSW 4.3mph /  6.9km/h 6.9mph /  11.1km/h 22% 0in /  0.0mm CLR
14:45 67.1 °F /  19.5 °C 27 °F /  -2.8 °C 30.3in /  1024.9hPa South 4.3mph /  6.9km/h 8.7mph /  14.0km/h 22% 0in /  0.0mm CLR
14:50 66.9 °F /  19.4 °C 26.8 °F /  -2.9 °C 30.3in /  1024.6hPa SSE 4.3mph /  6.9km/h 9.2mph /  14.8km/h 22% 0in /  0.0mm CLR
14:55 66.9 °F /  19.4 °C 26.8 °F /  -2.9 °C 30.3in /  1024.6hPa South 4.3mph /  6.9km/h 8.1mph /  13.0km/h 22% 0in /  0.0mm CLR
15:00 67.1 °F /  19.5 °C 27 °F /  -2.8 °C 30.3in /  1024.6hPa SE 6mph /  9.7km/h 9mph /  14.5km/h 22% 0in /  0.0mm CLR
15:05 67.5 °F /  19.7 °C 27.1 °F /  -2.7 °C 30.3in /  1024.4hPa SSE 5.4mph /  8.7km/h 4.6mph /  7.4km/h 22% 0in /  0.0mm CLR
15:10 67.5 °F /  19.7 °C 26.1 °F /  -3.3 °C 30.3in /  1024.4hPa SSE 4mph /  6.4km/h 10.4mph /  16.7km/h 21% 0in /  0.0mm CLR
15:15 67.3 °F /  19.6 °C 26.1 °F /  -3.3 °C 30.3in /  1024.4hPa SE 4mph /  6.4km/h 2.3mph /  3.7km/h 21% 0in /  0.0mm CLR
15:20 67.6 °F /  19.8 °C 26.2 °F /  -3.2 °C 30.3in /  1024.4hPa ENE 4.3mph /  6.9km/h 8.1mph /  13.0km/h 21% 0in /  0.0mm CLR
15:25 68 °F /  20.0 °C 26.6 °F /  -3.0 °C 30.3in /  1024.4hPa ENE 4.3mph /  6.9km/h 6.9mph /  11.1km/h 21% 0in /  0.0mm CLR
15:30 68.2 °F /  20.1 °C 26.8 °F /  -2.9 °C 30.3in /  1024.4hPa NE 4.3mph /  6.9km/h 6.9mph /  11.1km/h 21% 0in /  0.0mm CLR
15:35 68.2 °F /  20.1 °C 25.5 °F /  -3.6 °C 30.2in /  1024.2hPa SE 4.3mph /  6.9km/h 8.1mph /  13.0km/h 20% 0in /  0.0mm CLR
15:40 68.4 °F /  20.2 °C 25.7 °F /  -3.5 °C 30.2in /  1024.2hPa ESE 4mph /  6.4km/h 6.9mph /  11.1km/h 20% 0in /  0.0mm CLR
15:45 68.2 °F /  20.1 °C 25.5 °F /  -3.6 °C 30.2in /  1024.2hPa ENE 4mph /  6.4km/h 6.9mph /  11.1km/h 20% 0in /  0.0mm CLR
15:50 68.5 °F /  20.3 °C 25.9 °F /  -3.4 °C 30.2in /  1024.0hPa South 4.7mph /  7.6km/h 6.9mph /  11.1km/h 20% 0in /  0.0mm CLR
15:55 69.1 °F /  20.6 °C 26.2 °F /  -3.2 °C 30.2in /  1024.0hPa South 4.7mph /  7.6km/h 8.1mph /  13.0km/h 20% 0in /  0.0mm CLR
16:00 69.1 °F /  20.6 °C 27.5 °F /  -2.5 °C 30.2in /  1024.0hPa South 5mph /  8.0km/h 8mph /  12.9km/h 21% 0in /  0.0mm CLR
16:05 69.8 °F /  21.0 °C 27 °F /  -2.8 °C 30.2in /  1023.9hPa WSW 5.2mph /  8.4km/h 4.6mph /  7.4km/h 20% 0in /  0.0mm CLR
16:10 70 °F /  21.1 °C 27 °F /  -2.8 °C 30.2in /  1023.9hPa SSW 2.9mph /  4.7km/h 5.8mph /  9.3km/h 20% 0in /  0.0mm CLR
16:15 70.3 °F /  21.3 °C 27.3 °F /  -2.6 °C 30.2in /  1023.9hPa ESE 2.9mph /  4.7km/h 5.8mph /  9.3km/h 20% 0in /  0.0mm CLR
16:20 70 °F /  21.1 °C 27 °F /  -2.8 °C 30.2in /  1023.9hPa SE 4mph /  6.4km/h 8.1mph /  13.0km/h 20% 0in /  0.0mm CLR
16:25 70 °F /  21.1 °C 27 °F /  -2.8 °C 30.2in /  1023.9hPa East 4mph /  6.4km/h 4.6mph /  7.4km/h 20% 0in /  0.0mm CLR
16:30 69.8 °F /  21.0 °C 27 °F /  -2.8 °C 30.2in /  1023.9hPa NNE 3.6mph /  5.8km/h 4.6mph /  7.4km/h 20% 0in /  0.0mm CLR
16:35 70.2 °F /  21.2 °C 27.1 °F /  -2.7 °C 30.2in /  1023.6hPa East 3.6mph /  5.8km/h 2.3mph /  3.7km/h 20% 0in /  0.0mm CLR
16:40 70 °F /  21.1 °C 25.9 °F /  -3.4 °C 30.2in /  1023.6hPa ESE 2.9mph /  4.7km/h 6.9mph /  11.1km/h 19% 0in /  0.0mm CLR
16:45 69.6 °F /  20.9 °C 33.3 °F /  0.7 °C 30.2in /  1023.6hPa ESE 2.9mph /  4.7km/h 12.7mph /  20.4km/h 26% 0in /  0.0mm CLR
16:50 69.1 °F /  20.6 °C 34.5 °F /  1.4 °C 30.2in /  1023.6hPa ESE 6.2mph /  10.0km/h 8.1mph /  13.0km/h 28% 0in /  0.0mm CLR
16:55 68.5 °F /  20.3 °C 35.1 °F /  1.7 °C 30.2in /  1023.6hPa ESE 6.2mph /  10.0km/h 9.2mph /  14.8km/h 29% 0in /  0.0mm CLR
17:00 68.4 °F /  20.2 °C 35.8 °F /  2.1 °C 30.2in /  1023.6hPa ESE 8mph /  12.9km/h 15mph /  24.1km/h 30% 0in /  0.0mm CLR
17:05 68.2 °F /  20.1 °C 34.7 °F /  1.5 °C 30.2in /  1023.5hPa ESE 8.5mph /  13.7km/h 10.2mph /  16.4km/h 29% 0in /  0.0mm CLR
17:10 68.2 °F /  20.1 °C 36.3 °F /  2.4 °C 30.2in /  1023.5hPa SSE 8.7mph /  14.0km/h 17.3mph /  27.8km/h 31% 0in /  0.0mm CLR
17:15 67.6 °F /  19.8 °C 36 °F /  2.2 °C 30.2in /  1023.5hPa ESE 8.7mph /  14.0km/h 13mph /  20.9km/h 31% 0in /  0.0mm CLR
17:20 67.8 °F /  19.9 °C 36.9 °F /  2.7 °C 30.2in /  1023.5hPa East 9.2mph /  14.8km/h 12.7mph /  20.4km/h 32% 0in /  0.0mm CLR
17:24 67.6 °F /  19.8 °C 36.7 °F /  2.6 °C 30.2in /  1023.5hPa ESE 9.2mph /  14.8km/h 9.2mph /  14.8km/h 32% 0in /  0.0mm CLR
17:30 67.5 °F /  19.7 °C 36.7 °F /  2.6 °C 30.2in /  1023.5hPa SE 9.2mph /  14.8km/h 12.7mph /  20.4km/h 32% 0in /  0.0mm CLR
17:34 67.5 °F /  19.7 °C 37.2 °F /  2.9 °C 30.2in /  1023.4hPa ESE 9.2mph /  14.8km/h 12.7mph /  20.4km/h 33% 0in /  0.0mm CLR
17:40 67.1 °F /  19.5 °C 37.8 °F /  3.2 °C 30.2in /  1023.4hPa East 8.7mph /  14.0km/h 13.8mph /  22.2km/h 34% 0in /  0.0mm CLR
17:45 66.6 °F /  19.2 °C 37.9 °F /  3.3 °C 30.2in /  1023.4hPa SE 8.7mph /  14.0km/h 15mph /  24.1km/h 35% 0in /  0.0mm CLR
17:50 66.4 °F /  19.1 °C 37.9 °F /  3.3 °C 30.2in /  1023.5hPa SE 10mph /  16.1km/h 11.5mph /  18.5km/h 35% 0in /  0.0mm CLR
17:55 66.2 °F /  19.0 °C 37.8 °F /  3.2 °C 30.2in /  1023.5hPa ENE 10mph /  16.1km/h 12.7mph /  20.4km/h 35% 0in /  0.0mm CLR
18:00 66 °F /  18.9 °C 37.6 °F /  3.1 °C 30.2in /  1023.5hPa ESE 9mph /  14.5km/h 14mph /  22.5km/h 35% 0in /  0.0mm CLR
18:05 66 °F /  18.9 °C 37.6 °F /  3.1 °C 30.2in /  1023.4hPa ESE 9.7mph /  15.6km/h 12.7mph /  20.4km/h 35% 0in /  0.0mm CLR
18:10 65.8 °F /  18.8 °C 38.1 °F /  3.4 °C 30.2in /  1023.4hPa ESE 8.5mph /  13.7km/h 11.5mph /  18.5km/h 36% 0in /  0.0mm CLR
18:15 65.8 °F /  18.8 °C 37.4 °F /  3.0 °C 30.2in /  1023.4hPa SE 8.5mph /  13.7km/h 11.5mph /  18.5km/h 35% 0in /  0.0mm CLR
18:20 66 °F /  18.9 °C 39 °F /  3.9 °C 30.2in /  1023.6hPa ESE 7.4mph /  11.9km/h 10.4mph /  16.7km/h 37% 0in /  0.0mm CLR
18:25 65.5 °F /  18.6 °C 39.9 °F /  4.4 °C 30.2in /  1023.6hPa ESE 7.4mph /  11.9km/h 12.7mph /  20.4km/h 39% 0in /  0.0mm CLR
18:30 65.1 °F /  18.4 °C 39.6 °F /  4.2 °C 30.2in /  1023.6hPa ESE 8.1mph /  13.0km/h 11.5mph /  18.5km/h 39% 0in /  0.0mm CLR
18:35 64.9 °F /  18.3 °C 39.4 °F /  4.1 °C 30.2in /  1023.8hPa ESE 8.1mph /  13.0km/h 8.1mph /  13.0km/h 39% 0in /  0.0mm CLR
18:40 64.8 °F /  18.2 °C 39.2 °F /  4.0 °C 30.2in /  1023.8hPa East 6.4mph /  10.3km/h 6.9mph /  11.1km/h 39% 0in /  0.0mm CLR
18:45 64.8 °F /  18.2 °C 39.9 °F /  4.4 °C 30.2in /  1023.8hPa ESE 6.4mph /  10.3km/h 10.4mph /  16.7km/h 40% 0in /  0.0mm CLR
18:50 64.4 °F /  18.0 °C 40.3 °F /  4.6 °C 30.2in /  1024.0hPa SE 6.4mph /  10.3km/h 8.1mph /  13.0km/h 41% 0in /  0.0mm CLR
18:55 64.2 °F /  17.9 °C 40.6 °F /  4.8 °C 30.2in /  1024.0hPa East 6.4mph /  10.3km/h 5.8mph /  9.3km/h 42% 0in /  0.0mm CLR
19:00 64 °F /  17.8 °C 40.5 °F /  4.7 °C 30.2in /  1024.0hPa ESE 5mph /  8.0km/h 7mph /  11.3km/h 42% 0in /  0.0mm CLR
19:05 63.9 °F /  17.7 °C 40.8 °F /  4.9 °C 30.2in /  1024.1hPa ESE 5.2mph /  8.4km/h 7.4mph /  11.9km/h 43% 0in /  0.0mm CLR
19:10 63.5 °F /  17.5 °C 41.2 °F /  5.1 °C 30.2in /  1024.1hPa ESE 5.2mph /  8.4km/h 8.1mph /  13.0km/h 44% 0in /  0.0mm CLR
19:15 63 °F /  17.2 °C 41.7 °F /  5.4 °C 30.2in /  1024.1hPa SE 5.2mph /  8.4km/h 8.1mph /  13.0km/h 46% 0in /  0.0mm CLR
19:20 62.8 °F /  17.1 °C 42.3 °F /  5.7 °C 30.2in /  1024.1hPa ESE 5.4mph /  8.7km/h 8.5mph /  13.7km/h 47% 0in /  0.0mm CLR
19:25 62.4 °F /  16.9 °C 42.4 °F /  5.8 °C 30.2in /  1024.1hPa ESE 5.4mph /  8.7km/h 6.9mph /  11.1km/h 48% 0in /  0.0mm CLR
19:30 62.2 °F /  16.8 °C 42.3 °F /  5.7 °C 30.2in /  1024.1hPa ESE 5.2mph /  8.4km/h 6.9mph /  11.1km/h 48% 0in /  0.0mm CLR
19:35 61.9 °F /  16.6 °C 42.4 °F /  5.8 °C 30.2in /  1024.1hPa East 5.2mph /  8.4km/h 5.8mph /  9.3km/h 49% 0in /  0.0mm CLR
19:40 61.7 °F /  16.5 °C 43 °F /  6.1 °C 30.2in /  1024.1hPa ESE 4.3mph /  6.9km/h 5.8mph /  9.3km/h 50% 0in /  0.0mm CLR
19:45 61.3 °F /  16.3 °C 43 °F /  6.1 °C 30.2in /  1024.1hPa ESE 4.3mph /  6.9km/h 6.9mph /  11.1km/h 51% 0in /  0.0mm CLR
19:50 61.2 °F /  16.2 °C 43.3 °F /  6.3 °C 30.2in /  1024.1hPa ESE 4.3mph /  6.9km/h 6.9mph /  11.1km/h 52% 0in /  0.0mm CLR
19:55 61 °F /  16.1 °C 43.7 °F /  6.5 °C 30.2in /  1024.1hPa SE 4.3mph /  6.9km/h 5.8mph /  9.3km/h 53% 0in /  0.0mm CLR
20:00 60.8 °F /  16.0 °C 44.1 °F /  6.7 °C 30.2in /  1024.1hPa SE 5mph /  8.0km/h 6mph /  9.7km/h 54% 0in /  0.0mm CLR
20:05 60.6 °F /  15.9 °C 43.9 °F /  6.6 °C 30.3in /  1024.3hPa East 4.7mph /  7.6km/h 4.6mph /  7.4km/h 54% 0in /  0.0mm CLR
20:10 60.4 °F /  15.8 °C 44.2 °F /  6.8 °C 30.3in /  1024.3hPa East 2.9mph /  4.7km/h 3.6mph /  5.8km/h 55% 0in /  0.0mm CLR
20:15 60.3 °F /  15.7 °C 44.1 °F /  6.7 °C 30.3in /  1024.3hPa NW 2.9mph /  4.7km/h 4.7mph /  7.6km/h 55% 0in /  0.0mm CLR
20:20 60.1 °F /  15.6 °C 43.3 °F /  6.3 °C 30.3in /  1024.5hPa NNW 2.9mph /  4.7km/h 5.8mph /  9.3km/h 54% 0in /  0.0mm CLR
20:25 59.7 °F /  15.4 °C 42.1 °F /  5.6 °C 30.3in /  1024.5hPa NNW 2.9mph /  4.7km/h 4.6mph /  7.4km/h 52% 0in /  0.0mm CLR
20:30 59.5 °F /  15.3 °C 41.4 °F /  5.2 °C 30.3in /  1024.5hPa NNW 3.1mph /  5.0km/h 4.6mph /  7.4km/h 51% 0in /  0.0mm CLR
20:35 59.4 °F /  15.2 °C 41.2 °F /  5.1 °C 30.3in /  1024.6hPa NNW 3.1mph /  5.0km/h 3.5mph /  5.6km/h 51% 0in /  0.0mm CLR
20:40 59.4 °F /  15.2 °C 41.2 °F /  5.1 °C 30.3in /  1024.6hPa WSW 2mph /  3.2km/h 5.4mph /  8.7km/h 51% 0in /  0.0mm CLR
20:45 59.4 °F /  15.2 °C 41.7 °F /  5.4 °C 30.3in /  1024.6hPa NW 2mph /  3.2km/h 4.6mph /  7.4km/h 52% 0in /  0.0mm CLR
20:50 59.2 °F /  15.1 °C 41.2 °F /  5.1 °C 30.3in /  1024.6hPa NW 2.4mph /  3.9km/h 2.3mph /  3.7km/h 51% 0in /  0.0mm CLR
20:55 59.2 °F /  15.1 °C 41.5 °F /  5.3 °C 30.3in /  1024.6hPa NW 2.4mph /  3.9km/h   52% 0in /  0.0mm CLR
21:00 59.2 °F /  15.1 °C 43 °F /  6.1 °C 30.3in /  1024.6hPa WNW 1mph /  1.6km/h 6mph /  9.7km/h 55% 0in /  0.0mm CLR
21:05 59.4 °F /  15.2 °C 43.7 °F /  6.5 °C 30.3in /  1024.7hPa SW 1.4mph /  2.3km/h 6.9mph /  11.1km/h 56% 0in /  0.0mm CLR
21:10 59.5 °F /  15.3 °C 44.2 °F /  6.8 °C 30.3in /  1024.7hPa WNW 4mph /  6.4km/h 5.8mph /  9.3km/h 57% 0in /  0.0mm CLR
21:15 59.5 °F /  15.3 °C 44.2 °F /  6.8 °C 30.3in /  1024.7hPa WSW 4mph /  6.4km/h 4.6mph /  7.4km/h 57% 0in /  0.0mm CLR
21:20 59.5 °F /  15.3 °C 44.8 °F /  7.1 °C 30.3in /  1024.7hPa WSW 2.9mph /  4.7km/h 2.9mph /  4.7km/h 58% 0in /  0.0mm CLR
21:25 59.4 °F /  15.2 °C 44.6 °F /  7.0 °C 30.3in /  1024.7hPa WSW 2.9mph /  4.7km/h 5.8mph /  9.3km/h 58% 0in /  0.0mm CLR
21:30 59.4 °F /  15.2 °C 45 °F /  7.2 °C 30.3in /  1024.7hPa SW 3.1mph /  5.0km/h 9.2mph /  14.8km/h 59% 0in /  0.0mm CLR
21:35 59.4 °F /  15.2 °C 45 °F /  7.2 °C 30.3in /  1024.7hPa SSW 3.1mph /  5.0km/h 11.5mph /  18.5km/h 59% 0in /  0.0mm CLR
21:40 59.2 °F /  15.1 °C 45.3 °F /  7.4 °C 30.3in /  1024.7hPa SSW 5.2mph /  8.4km/h 8.1mph /  13.0km/h 60% 0in /  0.0mm CLR
21:45 59.2 °F /  15.1 °C 45.3 °F /  7.4 °C 30.3in /  1024.7hPa SSW 5.2mph /  8.4km/h 5.8mph /  9.3km/h 60% 0in /  0.0mm CLR
21:50 59.2 °F /  15.1 °C 45.3 °F /  7.4 °C 30.3in /  1024.8hPa SW 4.7mph /  7.6km/h 5.8mph /  9.3km/h 60% 0in /  0.0mm CLR
21:55 59 °F /  15.0 °C 45.7 °F /  7.6 °C 30.3in /  1024.8hPa West 4.7mph /  7.6km/h 6.9mph /  11.1km/h 61% 0in /  0.0mm CLR
22:00 58.8 °F /  14.9 °C 45.3 °F /  7.4 °C 30.3in /  1024.8hPa WSW 5mph /  8.0km/h 9mph /  14.5km/h 61% 0in /  0.0mm CLR
22:05 58.8 °F /  14.9 °C 45.9 °F /  7.7 °C 30.3in /  1024.8hPa SW 4.3mph /  6.9km/h 5.8mph /  9.3km/h 62% 0in /  0.0mm CLR
22:10 58.6 °F /  14.8 °C 46 °F /  7.8 °C 30.3in /  1024.8hPa SW 4.7mph /  7.6km/h 6.9mph /  11.1km/h 63% 0in /  0.0mm CLR
22:15 58.5 °F /  14.7 °C 45.9 °F /  7.7 °C 30.3in /  1024.8hPa SW 4.7mph /  7.6km/h 5.8mph /  9.3km/h 63% 0in /  0.0mm CLR
22:20 58.5 °F /  14.7 °C 45.5 °F /  7.5 °C 30.3in /  1024.8hPa SSW 4.7mph /  7.6km/h 6.2mph /  10.0km/h 62% 0in /  0.0mm CLR
22:25 58.5 °F /  14.7 °C 45.1 °F /  7.3 °C 30.3in /  1024.8hPa SSW 4.7mph /  7.6km/h 6.9mph /  11.1km/h 61% 0in /  0.0mm CLR
22:30 58.3 °F /  14.6 °C 44.4 °F /  6.9 °C 30.3in /  1024.8hPa South 4.7mph /  7.6km/h 5.8mph /  9.3km/h 60% 0in /  0.0mm CLR
22:35 58.3 °F /  14.6 °C 44.4 °F /  6.9 °C 30.3in /  1024.9hPa SW 4.7mph /  7.6km/h 4.6mph /  7.4km/h 60% 0in /  0.0mm CLR
22:40 58.1 °F /  14.5 °C 44.2 °F /  6.8 °C 30.3in /  1024.9hPa West 4mph /  6.4km/h 5.8mph /  9.3km/h 60% 0in /  0.0mm CLR
22:45 57.9 °F /  14.4 °C 42.8 °F /  6.0 °C 30.3in /  1024.9hPa WSW 4mph /  6.4km/h 8.1mph /  13.0km/h 57% 0in /  0.0mm CLR
22:50 57.7 °F /  14.3 °C 42.1 °F /  5.6 °C 30.3in /  1025.0hPa SW 4.3mph /  6.9km/h 6.2mph /  10.0km/h 56% 0in /  0.0mm CLR
22:55 57.6 °F /  14.2 °C 41.5 °F /  5.3 °C 30.3in /  1025.0hPa SW 4.3mph /  6.9km/h 4.6mph /  7.4km/h 55% 0in /  0.0mm CLR
23:00 57.6 °F /  14.2 °C 42.1 °F /  5.6 °C 30.3in /  1025.0hPa SW 3mph /  4.8km/h 6mph /  9.7km/h 56% 0in /  0.0mm CLR
23:05 57.6 °F /  14.2 °C 43 °F /  6.1 °C 30.3in /  1025.0hPa SSW 3.6mph /  5.8km/h 4.7mph /  7.6km/h 58% 0in /  0.0mm CLR
23:10 57.4 °F /  14.1 °C 42.6 °F /  5.9 °C 30.3in /  1025.0hPa SW 4mph /  6.4km/h 9.7mph /  15.6km/h 58% 0in /  0.0mm CLR
23:15 57.2 °F /  14.0 °C 43 °F /  6.1 °C 30.3in /  1025.0hPa SW 4mph /  6.4km/h 6.9mph /  11.1km/h 59% 0in /  0.0mm CLR
23:20 57 °F /  13.9 °C 43.3 °F /  6.3 °C 30.3in /  1024.9hPa SW 4.3mph /  6.9km/h 4.6mph /  7.4km/h 60% 0in /  0.0mm CLR
23:25 57 °F /  13.9 °C 44.1 °F /  6.7 °C 30.3in /  1024.9hPa South 4.3mph /  6.9km/h 6.9mph /  11.1km/h 62% 0in /  0.0mm CLR
23:30 56.8 °F /  13.8 °C 45.1 °F /  7.3 °C 30.3in /  1024.9hPa SSW 4.3mph /  6.9km/h 8.1mph /  13.0km/h 65% 0in /  0.0mm CLR
23:35 56.5 °F /  13.6 °C 45.7 °F /  7.6 °C 30.3in /  1025.0hPa SW 4.3mph /  6.9km/h 8.1mph /  13.0km/h 67% 0in /  0.0mm CLR
23:40 56.1 °F /  13.4 °C 45.7 °F /  7.6 °C 30.3in /  1025.0hPa SSW 5.9mph /  9.5km/h 9.2mph /  14.8km/h 68% 0in /  0.0mm CLR
23:45 55.8 °F /  13.2 °C 45.3 °F /  7.4 °C 30.3in /  1025.0hPa SSW 5.9mph /  9.5km/h 11.5mph /  18.5km/h 68% 0in /  0.0mm CLR
23:50 55.6 °F /  13.1 °C 45.7 °F /  7.6 °C 30.3in /  1024.9hPa SSW 7.6mph /  12.2km/h 10.4mph /  16.7km/h 69% 0in /  0.0mm CLR
23:55 55.6 °F /  13.1 °C 45.7 °F /  7.6 °C 30.3in /  1024.9hPa SW 7.6mph /  12.2km/h 11.5mph /  18.5km/h 69% 0in /  0.0mm CLR
Murcia-Puente Tocinos, España
Compliments of Weather Underground - 2.75 mb

La estación de MeteoMurcia.com, publica sus datos en los siguientes proyectos:

Weather Underground PWS IMURCIAP2 Meteoclimatic www.awekas.at

W3Counter
Web Analytics